createdAt,value
2022-08-10T00:00:20.605Z,0.50
2022-08-10T00:03:10.026Z,0.90
2022-08-10T00:05:43.802Z,0.70
2022-08-10T00:08:22.513Z,0.80
2022-08-10T00:10:54.819Z,1.07
2022-08-10T00:13:24.030Z,0.47
2022-08-10T00:15:55.417Z,1.02
2022-08-10T00:18:34.287Z,0.63
2022-08-10T00:21:04.836Z,0.70
2022-08-10T00:23:38.442Z,1.23
2022-08-10T00:26:11.236Z,0.60
2022-08-10T00:28:40.148Z,0.70
2022-08-10T00:31:10.313Z,0.93
2022-08-10T00:33:40.007Z,0.88
2022-08-10T00:36:08.853Z,0.90
2022-08-10T00:38:37.840Z,0.90
2022-08-10T00:41:09.071Z,0.70
2022-08-10T00:43:37.633Z,0.75
2022-08-10T00:46:16.368Z,0.85
2022-08-10T00:48:45.342Z,1.10
2022-08-10T00:51:48.685Z,0.73
2022-08-10T00:54:24.646Z,0.80
2022-08-10T00:57:17.626Z,1.00
2022-08-10T00:59:58.558Z,0.90
2022-08-10T01:02:37.406Z,0.90
2022-08-10T01:05:08.734Z,0.80
2022-08-10T01:07:55.750Z,0.68
2022-08-10T01:10:34.969Z,0.88
2022-08-10T01:13:06.035Z,0.85
2022-08-10T01:15:40.320Z,0.60
2022-08-10T01:18:34.784Z,0.80
2022-08-10T01:21:06.709Z,0.82
2022-08-10T01:24:04.273Z,1.13
2022-08-10T01:26:51.498Z,0.80
2022-08-10T01:29:37.924Z,0.85
2022-08-10T01:32:08.846Z,1.00
2022-08-10T01:35:12.863Z,0.80
2022-08-10T01:37:52.114Z,0.88
2022-08-10T01:40:25.121Z,0.90
2022-08-10T01:42:55.131Z,1.02
2022-08-10T01:45:29.042Z,0.90
2022-08-10T01:48:32.297Z,1.00
2022-08-10T01:51:05.765Z,1.30
2022-08-10T01:53:43.327Z,1.10
2022-08-10T01:56:13.348Z,1.08
2022-08-10T01:58:43.299Z,0.70
2022-08-10T02:01:16.572Z,1.00
2022-08-10T02:04:05.018Z,0.70
2022-08-10T02:06:46.704Z,1.13
2022-08-10T02:09:16.445Z,1.35
2022-08-10T02:12:06.317Z,0.95
2022-08-10T02:14:46.033Z,1.20
2022-08-10T02:17:58.089Z,0.93
2022-08-10T02:20:25.838Z,1.00
2022-08-10T02:23:04.506Z,1.08
2022-08-10T02:25:42.609Z,0.95
2022-08-10T02:28:29.774Z,1.10
2022-08-10T02:31:06.377Z,1.38
2022-08-10T02:33:38.362Z,1.20
2022-08-10T02:36:10.605Z,1.02
2022-08-10T02:39:01.005Z,0.88
2022-08-10T02:42:18.402Z,1.40
2022-08-10T02:45:22.070Z,0.68
2022-08-10T02:48:01.053Z,1.10
2022-08-10T02:50:35.236Z,1.27
2022-08-10T02:55:52.073Z,1.10
2022-08-10T02:58:40.645Z,1.15
2022-08-10T03:01:11.699Z,1.20
2022-08-10T03:03:46.108Z,1.00
2022-08-10T03:06:18.939Z,1.55
2022-08-10T03:08:47.767Z,1.00
2022-08-10T03:12:36.380Z,1.05
2022-08-10T03:14:14.637Z,1.27
2022-08-10T03:16:45.945Z,1.35
2022-08-10T03:20:33.504Z,1.50
2022-08-10T03:22:04.128Z,0.90
2022-08-10T03:24:33.689Z,1.30
2022-08-10T03:27:04.124Z,1.20
2022-08-10T03:30:29.545Z,1.30
2022-08-10T03:32:23.249Z,1.75
2022-08-10T03:34:52.348Z,1.30
2022-08-10T03:37:21.249Z,1.52
2022-08-10T03:39:51.217Z,1.65
2022-08-10T03:42:22.006Z,1.42
2022-08-10T03:44:52.121Z,1.48
2022-08-10T03:47:22.245Z,1.40
2022-08-10T03:49:52.430Z,1.73
2022-08-10T03:52:20.848Z,1.20
2022-08-10T03:54:51.570Z,1.50
2022-08-10T03:57:20.822Z,1.05
2022-08-10T03:59:49.828Z,1.58
2022-08-10T04:02:45.116Z,1.30
2022-08-10T04:05:08.322Z,1.38
2022-08-10T04:07:40.487Z,1.25
2022-08-10T04:10:13.113Z,1.52
2022-08-10T04:12:50.207Z,1.52
2022-08-10T04:15:26.921Z,1.30
2022-08-10T04:20:46.596Z,1.17
2022-08-10T04:23:26.336Z,1.40
2022-08-10T04:25:58.666Z,1.63
2022-08-10T04:28:27.504Z,1.40
2022-08-10T04:30:59.929Z,1.63
2022-08-10T04:33:32.874Z,1.50
2022-08-10T04:36:06.148Z,1.58
2022-08-10T04:41:08.911Z,1.35
2022-08-10T04:43:39.244Z,1.77
2022-08-10T04:46:14.042Z,1.13
2022-08-10T04:49:01.851Z,1.25
2022-08-10T04:51:32.269Z,1.38
2022-08-10T04:54:04.057Z,1.63
2022-08-10T04:56:39.510Z,1.40
2022-08-10T04:59:12.285Z,1.63
2022-08-10T05:02:22.082Z,1.50
2022-08-10T05:04:36.055Z,1.40
2022-08-10T05:07:07.120Z,1.52
2022-08-10T05:10:01.735Z,1.35
2022-08-10T05:12:24.376Z,1.40
2022-08-10T05:14:54.508Z,1.60
2022-08-10T05:17:23.977Z,1.88
2022-08-10T05:20:03.000Z,1.77
2022-08-10T05:22:40.635Z,1.63
2022-08-10T05:25:11.652Z,1.33
2022-08-10T05:27:57.575Z,1.42
2022-08-10T05:30:27.133Z,2.13
2022-08-10T05:33:10.535Z,2.05
2022-08-10T05:35:57.782Z,2.17
2022-08-10T05:38:30.323Z,1.27
2022-08-10T05:40:58.969Z,1.48
2022-08-10T05:43:27.262Z,1.45
2022-08-10T05:46:18.651Z,1.77
2022-08-10T05:48:59.715Z,1.13
2022-08-10T05:51:36.092Z,2.05
2022-08-10T05:54:14.947Z,1.40
2022-08-10T05:56:55.207Z,2.17
2022-08-10T06:00:33.269Z,1.30
2022-08-10T06:02:32.867Z,1.45
2022-08-10T06:05:24.492Z,1.42
2022-08-10T06:07:55.940Z,1.52
2022-08-10T06:10:32.055Z,1.85
2022-08-10T06:13:23.696Z,1.33
2022-08-10T06:16:01.877Z,1.30
2022-08-10T06:18:31.152Z,1.50
2022-08-10T06:21:01.527Z,1.40
2022-08-10T06:23:30.625Z,1.45
2022-08-10T06:26:10.020Z,1.50
2022-08-10T06:29:03.381Z,2.38
2022-08-10T06:31:48.434Z,1.50
2022-08-10T06:34:21.627Z,1.40
2022-08-10T06:36:52.924Z,1.40
2022-08-10T06:39:33.980Z,1.33
2022-08-10T06:42:15.966Z,1.73
2022-08-10T06:45:04.898Z,1.33
2022-08-10T06:47:51.687Z,1.67
2022-08-10T06:50:56.413Z,1.77
2022-08-10T06:53:52.455Z,2.00
2022-08-10T06:56:20.795Z,1.60
2022-08-10T06:59:22.066Z,1.52
2022-08-10T07:01:54.229Z,1.75
2022-08-10T07:04:40.708Z,1.60
2022-08-10T07:07:10.465Z,1.40
2022-08-10T07:09:40.946Z,1.10
2022-08-10T07:12:11.834Z,2.15
2022-08-10T07:14:45.260Z,1.67
2022-08-10T07:17:20.072Z,1.73
2022-08-10T07:19:52.474Z,1.50
2022-08-10T07:23:05.904Z,1.15
2022-08-10T07:25:15.933Z,1.52
2022-08-10T07:28:00.564Z,1.50
2022-08-10T07:30:32.261Z,1.40
2022-08-10T07:33:15.499Z,1.30
2022-08-10T07:35:46.793Z,1.30
2022-08-10T07:38:34.215Z,1.50
2022-08-10T07:41:03.429Z,1.63
2022-08-10T07:43:38.780Z,1.33
2022-08-10T07:46:12.134Z,1.65
2022-08-10T07:48:46.863Z,1.50
2022-08-10T07:51:17.432Z,1.40
2022-08-10T07:53:51.358Z,1.20
2022-08-10T07:56:47.261Z,1.73
2022-08-10T07:59:11.951Z,1.17
2022-08-10T08:01:43.292Z,1.48
2022-08-10T08:04:14.710Z,1.30
2022-08-10T08:06:43.549Z,1.50
2022-08-10T08:09:13.341Z,1.60
2022-08-10T08:11:47.144Z,1.20
2022-08-10T08:14:17.780Z,1.27
2022-08-10T08:16:48.427Z,1.75
2022-08-10T08:19:29.780Z,1.60
2022-08-10T08:24:05.290Z,1.52
2022-08-10T08:24:56.078Z,1.40
2022-08-10T08:27:28.390Z,2.13
2022-08-10T08:29:57.268Z,1.33
2022-08-10T08:32:33.107Z,1.50
2022-08-10T08:35:11.791Z,1.60
2022-08-10T08:38:31.224Z,1.55
2022-08-10T08:40:37.844Z,1.55
2022-08-10T08:43:10.620Z,1.70
2022-08-10T08:46:01.165Z,2.00
2022-08-10T08:48:47.300Z,1.48
2022-08-10T08:52:09.909Z,1.50
2022-08-10T08:54:22.003Z,1.27
2022-08-10T08:56:53.043Z,1.40
2022-08-10T08:59:23.703Z,1.65
2022-08-10T09:02:10.546Z,1.30
2022-08-10T09:04:47.062Z,1.55
2022-08-10T09:07:59.375Z,1.83
2022-08-10T09:10:37.837Z,1.98
2022-08-10T09:13:09.104Z,1.60
2022-08-10T09:15:52.497Z,1.42
2022-08-10T09:18:21.029Z,1.25
2022-08-10T09:20:49.110Z,1.83
2022-08-10T09:24:04.355Z,1.98
2022-08-10T09:26:19.406Z,1.50
2022-08-10T09:29:01.951Z,1.63
2022-08-10T09:32:59.444Z,1.55
2022-08-10T09:36:21.410Z,1.45
2022-08-10T09:37:42.551Z,1.55
2022-08-10T09:41:01.268Z,1.67
2022-08-10T09:43:25.239Z,1.75
2022-08-10T09:45:59.959Z,1.60
2022-08-10T09:48:40.690Z,1.63
2022-08-10T09:51:44.199Z,1.63
2022-08-10T09:54:16.305Z,1.30
2022-08-10T09:56:47.563Z,1.77
2022-08-10T09:59:26.737Z,1.00
2022-08-10T10:02:08.646Z,1.38
2022-08-10T10:04:44.410Z,1.58
2022-08-10T10:07:15.585Z,1.35
2022-08-10T10:10:02.691Z,1.77
2022-08-10T10:13:00.105Z,1.45
2022-08-10T10:15:46.735Z,1.42
2022-08-10T10:18:29.929Z,1.70
2022-08-10T10:21:10.471Z,1.73
2022-08-10T10:24:20.502Z,1.52
2022-08-10T10:27:01.233Z,1.50
2022-08-10T10:29:56.358Z,1.63
2022-08-10T10:32:37.619Z,1.40
2022-08-10T10:35:13.530Z,1.27
2022-08-10T10:38:02.853Z,1.73
2022-08-10T10:40:54.891Z,1.58
2022-08-10T10:43:39.224Z,1.40
2022-08-10T10:46:36.055Z,1.50
2022-08-10T10:49:13.702Z,1.55
2022-08-10T10:51:49.325Z,1.58
2022-08-10T10:54:22.851Z,1.75
2022-08-10T10:57:04.021Z,1.52
2022-08-10T10:59:55.694Z,1.92
2022-08-10T11:02:32.507Z,1.58
2022-08-10T11:05:00.638Z,1.48
2022-08-10T11:07:53.105Z,1.63
2022-08-10T11:10:32.387Z,2.47
2022-08-10T11:13:06.891Z,1.33
2022-08-10T11:16:09.848Z,1.38
2022-08-10T11:18:57.493Z,1.65
2022-08-10T11:21:37.717Z,1.40
2022-08-10T11:24:44.348Z,1.63
2022-08-10T11:27:03.478Z,1.40
2022-08-10T11:29:32.209Z,1.58
2022-08-10T11:32:05.634Z,1.60
2022-08-10T11:37:20.958Z,1.35
2022-08-10T11:39:56.966Z,1.70
2022-08-10T11:42:37.596Z,1.48
2022-08-10T11:45:19.397Z,1.52
2022-08-10T11:47:53.696Z,1.33
2022-08-10T11:50:25.857Z,1.90
2022-08-10T11:53:05.402Z,1.42
2022-08-10T11:55:34.639Z,2.70
2022-08-10T11:58:27.385Z,1.65
2022-08-10T12:01:02.109Z,2.13
2022-08-10T12:03:42.565Z,1.63
2022-08-10T12:06:14.586Z,2.00
2022-08-10T12:10:05.581Z,1.60
2022-08-10T12:11:36.741Z,1.42
2022-08-10T12:14:20.699Z,1.70
2022-08-10T12:16:53.987Z,1.15
2022-08-10T12:19:28.349Z,1.48
2022-08-10T12:22:05.784Z,1.77
2022-08-10T12:24:45.207Z,1.67
2022-08-10T12:27:33.702Z,1.38
2022-08-10T12:30:09.259Z,1.33
2022-08-10T12:33:08.224Z,1.70
2022-08-10T12:35:56.142Z,1.50
2022-08-10T12:38:52.015Z,1.13
2022-08-10T12:41:44.778Z,1.17
2022-08-10T12:44:35.756Z,0.97
2022-08-10T12:47:32.644Z,1.38
2022-08-10T12:50:31.426Z,1.23
2022-08-10T12:53:16.085Z,1.02
2022-08-10T12:55:45.206Z,1.00
2022-08-10T12:58:57.324Z,1.10
2022-08-10T13:01:16.050Z,1.20
2022-08-10T13:04:21.826Z,1.50
2022-08-10T13:06:46.140Z,1.00
2022-08-10T13:09:15.465Z,1.13
2022-08-10T13:12:35.134Z,1.20
2022-08-10T13:14:56.182Z,1.33
2022-08-10T13:17:39.084Z,1.10
2022-08-10T13:20:17.114Z,1.25
2022-08-10T13:22:54.745Z,0.82
2022-08-10T13:25:29.248Z,0.90
2022-08-10T13:28:36.484Z,0.95
2022-08-10T13:30:51.078Z,1.30
2022-08-10T13:34:41.246Z,0.98
2022-08-10T13:36:09.942Z,0.90
2022-08-10T13:38:40.986Z,0.98
2022-08-10T13:41:10.039Z,0.88
2022-08-10T13:43:49.858Z,2.08
2022-08-10T13:46:22.640Z,0.98
2022-08-10T13:48:54.676Z,1.00
2022-08-10T13:51:54.292Z,0.93
2022-08-10T13:54:17.542Z,0.80
2022-08-10T13:56:51.441Z,1.00
2022-08-10T13:59:20.953Z,0.80
2022-08-10T14:01:51.272Z,1.13
2022-08-10T14:04:31.556Z,1.40
2022-08-10T14:07:06.346Z,0.98
2022-08-10T14:09:35.970Z,1.02
2022-08-10T14:12:04.912Z,0.75
2022-08-10T14:14:34.842Z,1.20
2022-08-10T14:17:04.486Z,1.00
2022-08-10T14:19:37.717Z,0.95
2022-08-10T14:22:19.569Z,0.82
2022-08-10T14:25:06.958Z,1.00
2022-08-10T14:28:02.811Z,0.90
2022-08-10T14:30:36.260Z,1.00
2022-08-10T14:33:16.418Z,0.90
2022-08-10T14:36:21.052Z,1.02
2022-08-10T14:38:40.155Z,0.88
2022-08-10T14:42:01.428Z,0.80
2022-08-10T14:44:11.825Z,0.70
2022-08-10T14:46:45.386Z,1.05
2022-08-10T14:49:25.508Z,1.05
2022-08-10T14:52:02.891Z,0.80
2022-08-10T14:54:33.475Z,0.82
2022-08-10T14:57:11.107Z,1.00
2022-08-10T15:00:25.290Z,0.85
2022-08-10T15:02:53.401Z,0.80
2022-08-10T15:05:35.926Z,0.88
2022-08-10T15:08:14.220Z,1.00
2022-08-10T15:10:50.967Z,0.65
2022-08-10T15:13:33.630Z,0.80
2022-08-10T15:16:13.149Z,0.63
2022-08-10T15:18:43.278Z,0.82
2022-08-10T15:21:42.504Z,0.75
2022-08-10T15:24:14.869Z,1.05
2022-08-10T15:26:51.059Z,0.55
2022-08-10T15:29:26.964Z,0.52
2022-08-10T15:32:15.649Z,0.70
2022-08-10T15:35:02.616Z,1.25
2022-08-10T15:37:36.691Z,0.65
2022-08-10T15:40:30.772Z,0.60
2022-08-10T15:43:24.392Z,1.00
2022-08-10T15:46:00.903Z,0.95
2022-08-10T15:48:33.467Z,0.68
2022-08-10T15:51:06.584Z,0.77
2022-08-10T15:53:49.210Z,0.70
2022-08-10T15:56:28.414Z,0.50
2022-08-10T15:59:07.871Z,1.02
2022-08-10T16:02:13.418Z,0.70
2022-08-10T16:04:35.058Z,0.55
2022-08-10T16:07:06.120Z,0.80
2022-08-10T16:10:23.425Z,0.82
2022-08-10T16:12:29.653Z,0.80
2022-08-10T16:17:26.668Z,0.80
2022-08-10T16:19:58.508Z,0.60
2022-08-10T16:22:36.599Z,0.50
2022-08-10T16:25:12.640Z,0.80
2022-08-10T16:27:44.030Z,0.63
2022-08-10T16:30:13.124Z,0.88
2022-08-10T16:32:59.004Z,0.57
2022-08-10T16:35:29.376Z,0.93
2022-08-10T16:37:59.923Z,0.70
2022-08-10T16:40:30.026Z,0.90
2022-08-10T16:42:59.592Z,0.70
2022-08-10T16:45:36.645Z,0.70
2022-08-10T16:48:06.854Z,0.90
2022-08-10T16:50:42.422Z,0.60
2022-08-10T16:53:13.218Z,0.50
2022-08-10T16:55:51.884Z,0.90
2022-08-10T16:58:35.532Z,0.63
2022-08-10T17:01:17.840Z,0.55
2022-08-10T17:04:10.162Z,0.95
2022-08-10T17:06:57.029Z,0.98
2022-08-10T17:09:35.205Z,0.60
2022-08-10T17:12:10.537Z,0.77
2022-08-10T17:14:42.202Z,0.60
2022-08-10T17:17:15.041Z,0.50
2022-08-10T17:19:44.926Z,0.50
2022-08-10T17:22:21.179Z,1.02
2022-08-10T17:24:53.908Z,0.85
2022-08-10T17:28:04.007Z,0.57
2022-08-10T17:30:35.206Z,0.60
2022-08-10T17:33:16.575Z,0.63
2022-08-10T17:35:48.938Z,0.50
2022-08-10T17:38:21.925Z,1.23
2022-08-10T17:41:04.487Z,0.73
2022-08-10T17:43:58.325Z,0.80
2022-08-10T17:46:25.046Z,0.65
2022-08-10T17:49:00.406Z,0.60
2022-08-10T17:51:31.137Z,0.52
2022-08-10T17:54:01.682Z,0.70
2022-08-10T17:56:35.380Z,1.15
2022-08-10T17:59:16.698Z,0.82
2022-08-10T18:01:58.623Z,0.80
2022-08-10T18:04:41.726Z,0.68
2022-08-10T18:07:13.346Z,0.50
2022-08-10T18:09:46.541Z,0.65
2022-08-10T18:12:19.113Z,0.60
2022-08-10T18:14:51.298Z,0.73
2022-08-10T18:17:24.243Z,0.63
2022-08-10T18:20:01.346Z,0.70
2022-08-10T18:22:40.102Z,0.80
2022-08-10T18:25:17.577Z,1.20
2022-08-10T18:28:01.556Z,1.40
2022-08-10T18:30:45.459Z,0.75
2022-08-10T18:33:26.600Z,1.02
2022-08-10T18:35:56.509Z,0.90
2022-08-10T18:38:25.682Z,0.80
2022-08-10T18:40:57.931Z,0.77
2022-08-10T18:44:09.996Z,1.10
2022-08-10T18:46:29.272Z,1.08
2022-08-10T18:49:00.899Z,1.27
2022-08-10T18:51:35.756Z,0.70
2022-08-10T18:54:39.861Z,0.80
2022-08-10T18:57:35.572Z,0.88
2022-08-10T19:00:18.396Z,0.90
2022-08-10T19:03:14.472Z,0.80
2022-08-10T19:06:21.221Z,1.00
2022-08-10T19:08:52.019Z,0.73
2022-08-10T19:11:25.534Z,0.90
2022-08-10T19:14:01.753Z,0.73
2022-08-10T19:16:35.685Z,1.00
2022-08-10T19:19:16.334Z,0.90
2022-08-10T19:21:57.095Z,0.93
2022-08-10T19:24:33.811Z,1.58
2022-08-10T19:27:09.038Z,1.25
2022-08-10T19:30:09.294Z,0.90
2022-08-10T19:32:44.864Z,0.73
2022-08-10T19:35:31.787Z,1.02
2022-08-10T19:38:16.547Z,0.90
2022-08-10T19:40:51.442Z,0.70
2022-08-10T19:43:37.321Z,0.70
2022-08-10T19:46:28.049Z,1.00
2022-08-10T19:49:06.777Z,1.20
2022-08-10T19:51:48.927Z,1.23
2022-08-10T19:54:21.556Z,1.05
2022-08-10T19:57:01.681Z,1.00
2022-08-10T20:00:15.660Z,0.88
2022-08-10T20:02:24.277Z,0.80
2022-08-10T20:05:12.954Z,1.23
2022-08-10T20:08:03.209Z,0.88
2022-08-10T20:10:35.584Z,0.80
2022-08-10T20:13:09.982Z,0.95
2022-08-10T20:15:57.590Z,1.00
2022-08-10T20:18:28.749Z,0.77
2022-08-10T20:21:04.288Z,0.93
2022-08-10T20:23:36.853Z,1.00
2022-08-10T20:26:04.930Z,1.13
2022-08-10T20:28:42.418Z,0.70
2022-08-10T20:31:17.744Z,1.00
2022-08-10T20:34:07.493Z,0.95
2022-08-10T20:36:47.247Z,1.33
2022-08-10T20:39:27.800Z,1.55
2022-08-10T20:42:16.098Z,1.33
2022-08-10T20:44:53.580Z,1.30
2022-08-10T20:47:27.657Z,0.88
2022-08-10T20:49:58.911Z,0.98
2022-08-10T20:52:27.104Z,1.05
2022-08-10T20:55:01.567Z,1.20
2022-08-10T20:57:55.053Z,0.90
2022-08-10T21:00:34.887Z,0.90
2022-08-10T21:03:21.066Z,1.23
2022-08-10T21:06:11.904Z,1.08
2022-08-10T21:08:42.774Z,1.00
2022-08-10T21:11:19.516Z,0.80
2022-08-10T21:14:06.286Z,1.15
2022-08-10T21:16:40.181Z,0.77
2022-08-10T21:19:33.636Z,0.85
2022-08-10T21:25:07.193Z,1.08
2022-08-10T21:25:42.060Z,1.20
2022-08-10T21:27:57.417Z,0.95
2022-08-10T21:30:24.518Z,1.45
2022-08-10T21:33:13.964Z,1.70
2022-08-10T21:35:44.437Z,1.10
2022-08-10T21:38:26.793Z,0.90
2022-08-10T21:41:18.391Z,1.30
2022-08-10T21:44:05.425Z,1.10
2022-08-10T21:46:58.895Z,1.10
2022-08-10T21:49:57.464Z,1.20
2022-08-10T21:53:19.155Z,1.05
2022-08-10T21:56:14.252Z,1.35
2022-08-10T21:59:04.603Z,1.10
2022-08-10T22:01:55.199Z,1.10
2022-08-10T22:04:45.456Z,1.17
2022-08-10T22:07:36.526Z,2.15
2022-08-10T22:10:25.494Z,1.00
2022-08-10T22:13:17.088Z,1.17
2022-08-10T22:16:12.043Z,1.10
2022-08-10T22:19:03.491Z,0.95
2022-08-10T22:21:54.503Z,1.27
2022-08-10T22:24:45.158Z,1.13
2022-08-10T22:27:47.224Z,0.82
2022-08-10T22:30:35.238Z,1.30
2022-08-10T22:33:27.570Z,1.00
2022-08-10T22:36:32.235Z,1.30
2022-08-10T22:40:10.754Z,1.20
2022-08-10T22:42:58.086Z,1.00
2022-08-10T22:45:43.829Z,1.48
2022-08-10T22:48:29.549Z,0.82
2022-08-10T22:51:07.890Z,1.00
2022-08-10T22:53:58.097Z,0.93
2022-08-10T22:56:44.953Z,0.90
2022-08-10T22:59:15.360Z,0.98
2022-08-10T23:02:07.412Z,0.85
2022-08-10T23:04:45.036Z,0.95
2022-08-10T23:07:17.416Z,0.80
2022-08-10T23:09:48.938Z,0.90
2022-08-10T23:12:21.413Z,1.00
2022-08-10T23:14:59.140Z,0.95
2022-08-10T23:18:02.158Z,1.10
2022-08-10T23:20:36.515Z,0.80
2022-08-10T23:23:09.513Z,1.20
2022-08-10T23:25:56.557Z,1.30
2022-08-10T23:28:58.582Z,2.33
2022-08-10T23:31:17.725Z,1.05
2022-08-10T23:34:07.374Z,1.00
2022-08-10T23:36:38.066Z,1.20
2022-08-10T23:39:27.084Z,1.08
2022-08-10T23:42:06.947Z,0.88
2022-08-10T23:44:36.713Z,0.88
2022-08-10T23:47:05.508Z,0.98
2022-08-10T23:49:38.092Z,1.10
2022-08-10T23:52:13.857Z,1.02
2022-08-10T23:54:47.107Z,0.82
2022-08-10T23:57:17.257Z,1.15
2022-08-10T23:59:53.988Z,1.35
